Time;durP1;ratioP1;P1;durP2;ratioP2;P2;SDS_P1;SDS_P2;PMS_P1;PMS_P2;Temp;Humidity;BMP_temperature;BMP_pressure;BME280_temperature;BME280_humidity;BME280_pressure;Samples;Min_cycle;Max_cycle;Signal;HPM_P1;HPM_P2
2023/01/07 00:00:45;;;;;;;7.63;6.20;;;7.20;99.90;;;;;;5032117;28;20684;-67
2023/01/07 00:03:10;;;;;;;10.70;7.13;;;7.10;99.90;;;;;;5032379;28;20168;-67
2023/01/07 00:05:36;;;;;;;9.20;6.40;;;7.20;99.90;;;;;;5032045;28;20179;-67
2023/01/07 00:08:01;;;;;;;8.90;7.80;;;7.20;99.90;;;;;;5032268;28;20203;-67
2023/01/07 00:10:27;;;;;;;9.37;7.50;;;7.20;99.90;;;;;;5032046;28;20199;-67
2023/01/07 00:12:52;;;;;;;10.97;8.00;;;7.20;99.90;;;;;;5032145;28;20175;-68
2023/01/07 00:15:18;;;;;;;10.63;7.80;;;7.20;99.90;;;;;;5032038;28;20195;-68
2023/01/07 00:17:44;;;;;;;14.33;6.97;;;7.10;99.90;;;;;;5032012;28;20171;-67
2023/01/07 00:20:09;;;;;;;11.43;6.77;;;7.20;99.90;;;;;;5032271;28;20191;-68
2023/01/07 00:22:35;;;;;;;9.27;7.13;;;7.40;99.90;;;;;;5032102;28;20515;-67
2023/01/07 00:25:01;;;;;;;11.27;6.60;;;7.20;99.90;;;;;;5032232;28;20262;-67
2023/01/07 00:27:26;;;;;;;12.60;8.40;;;7.20;99.90;;;;;;5031991;28;20672;-67
2023/01/07 00:29:52;;;;;;;8.47;6.60;;;7.30;99.90;;;;;;5031775;28;20291;-67
2023/01/07 00:32:17;;;;;;;11.10;7.30;;;7.20;99.90;;;;;;5031889;28;20172;-67
2023/01/07 00:34:43;;;;;;;14.53;7.27;;;7.10;99.90;;;;;;5032173;28;20254;-67
2023/01/07 00:39:52;;;;;;;7.83;5.57;;;7.10;99.90;;;;;;5030311;28;20283;-67
2023/01/07 00:45:23;;;;;;;9.80;6.50;;;7.10;99.90;;;;;;4952327;28;20226;-67
2023/01/07 00:47:52;;;;;;;7.87;6.40;;;7.10;99.90;;;;;;4956356;28;20416;-67
2023/01/07 00:50:25;;;;;;;9.83;6.50;;;7.10;99.90;;;;;;4990395;28;20545;-67
2023/01/07 00:52:51;;;;;;;7.63;6.10;;;7.10;99.90;;;;;;5031731;28;20403;-67
2023/01/07 00:55:17;;;;;;;6.20;5.53;;;7.10;99.90;;;;;;5031242;28;20831;-67
2023/01/07 00:57:43;;;;;;;7.07;5.80;;;7.10;99.90;;;;;;5031482;28;20413;-67
2023/01/07 01:00:11;;;;;;;6.87;5.03;;;7.10;99.90;;;;;;5031520;28;20198;-67
2023/01/07 01:02:37;;;;;;;8.97;5.87;;;7.00;99.90;;;;;;5020526;28;20425;-67
2023/01/07 01:05:03;;;;;;;7.37;5.00;;;7.00;99.90;;;;;;5031313;28;20406;-66
2023/01/07 01:07:29;;;;;;;6.90;6.20;;;7.00;99.90;;;;;;5031690;28;20421;-66
2023/01/07 01:09:55;;;;;;;7.27;6.37;;;7.00;99.90;;;;;;5031238;28;20430;-68
2023/01/07 01:12:20;;;;;;;7.67;5.50;;;7.00;99.90;;;;;;5031264;28;20183;-68
2023/01/07 01:14:46;;;;;;;6.00;5.30;;;7.00;99.90;;;;;;5031438;28;20191;-68
2023/01/07 01:17:12;;;;;;;5.70;4.70;;;7.00;99.90;;;;;;5031421;28;20174;-66
2023/01/07 01:19:37;;;;;;;13.30;7.87;;;7.00;99.90;;;;;;5031141;28;20298;-66
2023/01/07 01:22:03;;;;;;;7.13;5.30;;;7.00;99.90;;;;;;5031252;28;20262;-66
2023/01/07 01:24:28;;;;;;;8.73;6.63;;;7.00;99.90;;;;;;5030853;28;20163;-66
2023/01/07 01:26:54;;;;;;;7.60;5.73;;;7.00;99.90;;;;;;5031309;28;20240;-66
2023/01/07 01:29:20;;;;;;;8.40;5.90;;;7.00;99.90;;;;;;5031118;28;20263;-68
2023/01/07 01:31:45;;;;;;;7.17;4.80;;;7.00;99.90;;;;;;5031344;28;20684;-67
2023/01/07 01:34:11;;;;;;;6.53;4.73;;;7.00;99.90;;;;;;5031253;28;20203;-66
2023/01/07 01:36:37;;;;;;;6.40;4.90;;;7.00;99.90;;;;;;5030958;28;20199;-66
2023/01/07 01:39:03;;;;;;;7.80;5.40;;;7.00;99.90;;;;;;5031053;28;20163;-68
2023/01/07 01:41:29;;;;;;;8.20;6.30;;;7.10;99.90;;;;;;5031070;28;20490;-67
2023/01/07 01:43:55;;;;;;;7.77;5.63;;;7.00;99.90;;;;;;5030990;28;20444;-67
2023/01/07 01:46:36;;;;;;;5.90;5.30;;;7.00;99.90;;;;;;5030794;28;20259;-67
2023/01/07 01:49:11;;;;;;;6.63;5.50;;;7.00;99.90;;;;;;5031424;28;20222;-67
2023/01/07 01:51:41;;;;;;;6.43;4.37;;;7.00;99.90;;;;;;5034590;28;20537;-67
2023/01/07 01:54:11;;;;;;;6.33;4.77;;;6.90;99.90;;;;;;5034846;28;20406;-67
2023/01/07 01:56:41;;;;;;;5.80;4.20;;;7.00;99.90;;;;;;5033825;28;20813;-68
2023/01/07 01:59:12;;;;;;;7.83;5.63;;;7.00;99.90;;;;;;5020831;28;20406;-67
2023/01/07 02:01:38;;;;;;;6.07;4.67;;;7.00;99.90;;;;;;5029331;28;20438;-69
2023/01/07 02:04:09;;;;;;;8.10;4.60;;;7.00;99.90;;;;;;5017158;28;20414;-67
2023/01/07 02:06:40;;;;;;;5.30;4.80;;;7.00;99.90;;;;;;5034575;28;20599;-66
2023/01/07 02:09:06;;;;;;;8.57;4.63;;;7.00;99.90;;;;;;5030327;28;20979;-67
2023/01/07 02:11:46;;;;;;;7.27;5.83;;;7.00;99.90;;;;;;5012710;28;20825;-67
2023/01/07 02:14:41;;;;;;;8.70;4.57;;;7.00;99.90;;;;;;5031165;28;20652;-67
2023/01/07 02:17:29;;;;;;;7.20;4.60;;;6.90;99.90;;;;;;5030765;28;20766;-67
2023/01/07 02:20:20;;;;;;;6.00;4.63;;;6.90;99.90;;;;;;5028157;28;20844;-68
2023/01/07 02:23:03;;;;;;;6.30;4.63;;;7.00;99.90;;;;;;5031286;28;20423;-67
2023/01/07 02:25:29;;;;;;;4.43;4.00;;;7.00;99.90;;;;;;5034067;28;20947;-67
2023/01/07 02:28:16;;;;;;;5.50;4.93;;;7.00;99.90;;;;;;5034126;28;20492;-67
2023/01/07 02:31:03;;;;;;;7.77;4.50;;;7.10;99.90;;;;;;5032759;28;20195;-66
2023/01/07 02:33:33;;;;;;;10.10;5.10;;;7.10;99.90;;;;;;5034095;28;20413;-67
2023/01/07 02:36:01;;;;;;;4.97;4.50;;;7.10;99.90;;;;;;5034133;28;20511;-67
2023/01/07 02:38:57;;;;;;;7.23;4.97;;;7.20;99.90;;;;;;5034096;28;20781;-67
2023/01/07 02:41:48;;;;;;;6.90;4.43;;;7.20;99.90;;;;;;5034271;28;20431;-67
2023/01/07 02:44:31;;;;;;;7.43;4.57;;;7.10;99.90;;;;;;5035786;28;20762;-68
2023/01/07 02:47:03;;;;;;;6.73;5.50;;;7.10;99.90;;;;;;5035687;28;20410;-67
2023/01/07 02:49:29;;;;;;;5.20;4.70;;;7.10;99.90;;;;;;5019883;28;20949;-68
2023/01/07 02:51:54;;;;;;;6.93;6.27;;;7.10;99.90;;;;;;5035568;28;20465;-66
2023/01/07 02:54:23;;;;;;;5.90;4.40;;;7.00;99.90;;;;;;5035832;28;20558;-66
2023/01/07 02:57:29;;;;;;;6.33;5.33;;;7.00;99.90;;;;;;5036531;28;20196;-66
2023/01/07 03:00:34;;;;;;;5.00;4.50;;;7.00;99.90;;;;;;5031721;28;20525;-66
2023/01/07 03:03:25;;;;;;;8.23;5.97;;;6.90;99.90;;;;;;5023164;28;20414;-66
2023/01/07 03:06:09;;;;;;;7.33;5.80;;;6.90;99.90;;;;;;5031820;28;20418;-66
2023/01/07 03:08:35;;;;;;;7.87;5.37;;;7.00;99.90;;;;;;5036615;28;20402;-66
2023/01/07 03:11:04;;;;;;;5.73;4.70;;;7.00;99.90;;;;;;5035105;28;20869;-65
2023/01/07 03:13:36;;;;;;;7.73;6.00;;;6.90;99.90;;;;;;5035695;28;20175;-65
2023/01/07 03:16:09;;;;;;;6.73;4.97;;;6.90;99.90;;;;;;5037767;28;20455;-67
2023/01/07 03:18:47;;;;;;;8.17;6.20;;;6.90;99.90;;;;;;5037254;28;20399;-67
2023/01/07 03:21:16;;;;;;;9.33;8.03;;;6.90;99.90;;;;;;5038972;28;20422;-67
2023/01/07 03:23:51;;;;;;;10.90;6.33;;;6.90;99.90;;;;;;5023912;28;20438;-66
2023/01/07 03:26:21;;;;;;;9.30;6.57;;;7.00;99.90;;;;;;5033078;28;20568;-68
2023/01/07 03:28:50;;;;;;;11.47;7.13;;;7.00;99.90;;;;;;5033009;28;20411;-66
2023/01/07 03:31:19;;;;;;;10.53;7.87;;;7.00;99.90;;;;;;5033005;28;20908;-66
2023/01/07 03:33:44;;;;;;;10.80;8.53;;;7.00;99.90;;;;;;5032920;28;20419;-67
2023/01/07 03:36:15;;;;;;;9.93;7.83;;;7.10;99.90;;;;;;5032635;28;20460;-66
2023/01/07 03:38:43;;;;;;;11.63;8.17;;;7.20;99.90;;;;;;5025074;28;20164;-65
2023/01/07 03:42:38;;;;;;;11.47;8.53;;;7.20;99.90;;;;;;5032373;28;20434;-65
2023/01/07 03:43:54;;;;;;;12.73;8.60;;;7.20;99.90;;;;;;5031582;28;20496;-66
2023/01/07 03:46:20;;;;;;;12.47;9.40;;;7.20;99.90;;;;;;5032313;28;20498;-66
2023/01/07 03:48:45;;;;;;;12.47;9.30;;;7.30;99.90;;;;;;5032488;28;20168;-66
2023/01/07 03:51:11;;;;;;;10.13;7.27;;;7.30;99.90;;;;;;5031164;28;20211;-66
2023/01/07 03:53:36;;;;;;;15.60;8.57;;;7.30;99.90;;;;;;5029585;28;20226;-66
2023/01/07 03:56:02;;;;;;;14.23;8.97;;;7.30;99.90;;;;;;5028050;28;20630;-68
2023/01/07 03:58:27;;;;;;;12.40;9.30;;;7.30;99.90;;;;;;5032397;28;20630;-66
2023/01/07 04:00:54;;;;;;;13.03;9.67;;;7.30;99.90;;;;;;5032389;28;20572;-67
2023/01/07 04:03:19;;;;;;;11.17;7.83;;;7.30;99.90;;;;;;5032728;28;20176;-67
2023/01/07 04:05:45;;;;;;;11.63;9.50;;;7.30;99.90;;;;;;5027332;28;20413;-67
2023/01/07 04:08:10;;;;;;;11.37;8.77;;;7.30;99.90;;;;;;5032497;28;20186;-66
2023/01/07 04:10:36;;;;;;;12.33;8.77;;;7.30;99.90;;;;;;5031935;28;20575;-67
2023/01/07 04:13:02;;;;;;;12.37;8.17;;;7.20;99.90;;;;;;5031597;28;20233;-66
2023/01/07 04:15:27;;;;;;;14.53;8.60;;;7.10;99.90;;;;;;5018327;28;20209;-67
2023/01/07 04:17:53;;;;;;;11.23;8.00;;;7.10;99.90;;;;;;5025935;28;20174;-67
2023/01/07 04:20:18;;;;;;;12.87;8.87;;;7.00;99.90;;;;;;5029145;28;20195;-67
2023/01/07 04:22:44;;;;;;;11.20;8.50;;;7.00;99.90;;;;;;5032074;28;20255;-67
2023/01/07 04:25:09;;;;;;;12.77;9.40;;;7.00;99.90;;;;;;5032578;28;20175;-68
2023/01/07 04:27:35;;;;;;;9.40;8.07;;;6.90;99.90;;;;;;5032079;28;20610;-67
2023/01/07 04:30:01;;;;;;;11.27;8.20;;;6.90;99.90;;;;;;5032074;28;20570;-67
2023/01/07 04:32:27;;;;;;;11.50;7.90;;;6.90;99.90;;;;;;5031855;28;20589;-67
2023/01/07 04:34:52;;;;;;;14.40;8.90;;;6.80;99.90;;;;;;5031770;28;20196;-67
2023/01/07 04:37:18;;;;;;;10.33;8.20;;;6.90;99.90;;;;;;5031754;28;20160;-67
2023/01/07 04:39:43;;;;;;;9.00;7.20;;;6.80;99.90;;;;;;5031663;28;20229;-68
2023/01/07 04:42:09;;;;;;;11.40;8.60;;;6.90;99.90;;;;;;5031811;28;20171;-68
2023/01/07 04:44:34;;;;;;;11.43;8.23;;;7.00;99.90;;;;;;5031595;28;20584;-67
2023/01/07 04:47:00;;;;;;;14.30;8.80;;;7.00;99.90;;;;;;5013949;28;20175;-67
2023/01/07 04:49:25;;;;;;;13.30;8.67;;;7.00;99.90;;;;;;5031690;28;20210;-67
2023/01/07 04:51:51;;;;;;;15.50;9.10;;;7.00;99.90;;;;;;5031371;28;20290;-67
2023/01/07 04:54:17;;;;;;;14.53;7.90;;;7.00;99.90;;;;;;5031447;28;20181;-67
2023/01/07 04:56:42;;;;;;;14.07;9.10;;;7.00;99.90;;;;;;5031527;28;20199;-67
2023/01/07 04:59:08;;;;;;;12.37;8.13;;;7.10;99.90;;;;;;5031511;28;20167;-67
2023/01/07 05:01:33;;;;;;;12.30;8.87;;;7.10;99.90;;;;;;5031289;28;20646;-67
2023/01/07 05:04:00;;;;;;;12.97;9.23;;;7.20;99.90;;;;;;5031708;28;20259;-67
2023/01/07 05:06:25;;;;;;;12.67;10.03;;;7.20;99.90;;;;;;5031260;28;20187;-67
2023/01/07 05:08:51;;;;;;;12.60;8.90;;;7.30;99.90;;;;;;5010777;28;20790;-67
2023/01/07 05:11:20;;;;;;;15.23;8.37;;;7.30;99.90;;;;;;5031684;28;20229;-67
2023/01/07 05:13:47;;;;;;;9.63;7.23;;;7.30;99.90;;;;;;5031483;28;20242;-67
2023/01/07 05:16:13;;;;;;;9.20;7.53;;;7.40;99.90;;;;;;5031394;28;20457;-68
2023/01/07 05:18:38;;;;;;;12.40;8.60;;;7.40;99.90;;;;;;5031236;28;20437;-67
2023/01/07 05:21:04;;;;;;;11.20;8.50;;;7.40;99.90;;;;;;5031265;28;20196;-67
2023/01/07 05:23:30;;;;;;;10.87;8.13;;;7.40;99.90;;;;;;5031907;28;20172;-67
2023/01/07 05:25:55;;;;;;;10.83;8.33;;;7.40;99.90;;;;;;5030626;28;20177;-67
2023/01/07 05:28:21;;;;;;;12.67;8.40;;;7.40;99.90;;;;;;5033181;28;20274;-67
2023/01/07 05:30:46;;;;;;;11.57;7.60;;;7.50;99.90;;;;;;5035060;28;20188;-67
2023/01/07 05:33:12;;;;;;;12.60;8.53;;;7.50;99.90;;;;;;5035400;28;20176;-66
2023/01/07 05:35:38;;;;;;;9.27;7.60;;;7.50;99.90;;;;;;5035144;28;20566;-66
2023/01/07 05:38:04;;;;;;;12.13;7.60;;;7.50;99.90;;;;;;5017507;28;20184;-66
2023/01/07 05:40:29;;;;;;;9.93;7.80;;;7.60;99.90;;;;;;5035095;28;20197;-66
2023/01/07 05:42:55;;;;;;;10.30;8.53;;;7.60;99.90;;;;;;5035099;28;20931;-67
2023/01/07 05:45:21;;;;;;;9.40;7.50;;;7.60;99.90;;;;;;5034959;28;20172;-66
2023/01/07 05:47:47;;;;;;;11.73;8.97;;;7.60;99.90;;;;;;5035029;28;20318;-67
2023/01/07 05:50:13;;;;;;;13.30;8.50;;;7.60;99.90;;;;;;5034436;28;20207;-66
2023/01/07 05:52:38;;;;;;;14.07;9.10;;;7.60;99.90;;;;;;5057664;22;20478;-67
2023/01/07 05:55:05;;;;;;;13.40;9.57;;;7.60;99.90;;;;;;5033461;28;20204;-68
2023/01/07 05:57:31;;;;;;;12.93;8.70;;;7.60;99.90;;;;;;5034194;28;20176;-68
2023/01/07 05:59:57;;;;;;;12.37;9.07;;;7.70;99.90;;;;;;5034577;28;20415;-68
2023/01/07 06:02:22;;;;;;;13.33;7.43;;;7.70;99.90;;;;;;5034506;28;20415;-68
2023/01/07 06:04:48;;;;;;;11.33;8.60;;;7.70;99.90;;;;;;5034571;28;20177;-68
2023/01/07 06:07:14;;;;;;;11.50;9.20;;;7.70;99.90;;;;;;5034913;28;20271;-68
2023/01/07 06:09:39;;;;;;;11.67;8.50;;;7.80;99.90;;;;;;5034314;28;20168;-67
2023/01/07 06:12:05;;;;;;;13.70;8.23;;;7.80;99.90;;;;;;5034097;28;20173;-68
2023/01/07 06:14:31;;;;;;;11.93;8.50;;;7.80;99.90;;;;;;5034011;28;20958;-68
2023/01/07 06:16:56;;;;;;;17.53;9.30;;;7.70;99.90;;;;;;5033896;28;20427;-68
2023/01/07 06:19:22;;;;;;;11.87;8.00;;;7.70;99.90;;;;;;5033956;28;20196;-68
2023/01/07 06:21:48;;;;;;;10.47;6.70;;;7.70;99.90;;;;;;5033614;28;20180;-68
2023/01/07 06:24:14;;;;;;;10.37;7.70;;;7.70;99.90;;;;;;5017495;28;20204;-67
2023/01/07 06:26:40;;;;;;;15.40;6.73;;;7.80;99.90;;;;;;5033552;28;20400;-66
2023/01/07 06:29:06;;;;;;;10.60;7.50;;;7.70;99.90;;;;;;5033248;28;20187;-67
2023/01/07 06:31:31;;;;;;;11.80;8.70;;;7.70;99.90;;;;;;5033476;28;20174;-67
2023/01/07 06:33:57;;;;;;;11.50;8.00;;;7.70;99.90;;;;;;5033332;28;20434;-67
2023/01/07 06:36:22;;;;;;;12.00;9.20;;;7.80;99.90;;;;;;5032358;28;20277;-66
2023/01/07 06:38:48;;;;;;;10.47;8.43;;;7.80;99.90;;;;;;5033250;28;20643;-68
2023/01/07 06:41:14;;;;;;;11.93;8.77;;;7.80;99.90;;;;;;5033542;28;20226;-67
2023/01/07 06:43:39;;;;;;;12.47;7.40;;;7.80;99.90;;;;;;5033352;28;20500;-69
2023/01/07 06:46:05;;;;;;;9.93;7.90;;;7.80;99.90;;;;;;5033457;28;20189;-66
2023/01/07 06:48:30;;;;;;;11.10;8.70;;;7.80;99.90;;;;;;5033388;28;20232;-68
2023/01/07 06:50:56;;;;;;;11.27;8.10;;;7.80;99.90;;;;;;5032954;28;20224;-69
2023/01/07 06:53:22;;;;;;;8.37;7.13;;;7.90;99.90;;;;;;5016700;28;20284;-67
2023/01/07 06:55:48;;;;;;;8.57;7.70;;;7.90;99.90;;;;;;5032884;28;20208;-65
2023/01/07 06:58:15;;;;;;;9.10;8.17;;;7.90;99.90;;;;;;5033162;28;20175;-67
2023/01/07 07:00:40;;;;;;;7.80;6.57;;;7.90;99.90;;;;;;5032875;28;20411;-67
2023/01/07 07:03:06;;;;;;;8.40;7.03;;;7.90;99.90;;;;;;5032757;28;20484;-67
2023/01/07 07:05:32;;;;;;;11.17;7.10;;;7.90;99.90;;;;;;5032777;28;20180;-68
2023/01/07 07:07:59;;;;;;;9.63;6.83;;;7.90;99.90;;;;;;5032826;28;20176;-67
2023/01/07 07:10:25;;;;;;;9.77;6.63;;;7.90;99.90;;;;;;5032841;28;20433;-67
2023/01/07 07:12:50;;;;;;;8.67;7.00;;;7.90;99.90;;;;;;5032732;28;20435;-68
2023/01/07 07:15:16;;;;;;;9.40;7.23;;;7.90;99.90;;;;;;5018131;28;20203;-68
2023/01/07 07:17:42;;;;;;;9.20;6.43;;;7.90;99.90;;;;;;5032769;28;20287;-68
2023/01/07 07:20:08;;;;;;;8.20;6.17;;;7.90;99.90;;;;;;5032364;28;20184;-67
2023/01/07 07:22:34;;;;;;;8.70;6.37;;;8.00;99.90;;;;;;5032554;28;20251;-68
2023/01/07 07:24:59;;;;;;;8.03;6.40;;;7.90;99.90;;;;;;5032528;28;20533;-67
2023/01/07 07:27:25;;;;;;;8.30;6.70;;;8.00;99.90;;;;;;5032802;28;20208;-68
2023/01/07 07:29:50;;;;;;;9.60;6.30;;;8.00;99.90;;;;;;5033142;28;20222;-68
2023/01/07 07:32:16;;;;;;;8.37;6.90;;;8.00;99.90;;;;;;5032794;28;20172;-68
2023/01/07 07:34:41;;;;;;;12.90;6.60;;;8.00;99.90;;;;;;5032347;28;20615;-68
2023/01/07 07:37:07;;;;;;;7.57;6.40;;;8.00;99.90;;;;;;5019323;28;20648;-68
2023/01/07 07:39:33;;;;;;;11.80;7.33;;;8.00;99.90;;;;;;5032768;28;20199;-68
2023/01/07 07:42:01;;;;;;;12.10;7.57;;;8.00;99.90;;;;;;5032697;28;20263;-68
2023/01/07 07:44:27;;;;;;;15.47;6.67;;;8.10;99.90;;;;;;5017713;28;20214;-68
2023/01/07 07:46:52;;;;;;;9.17;6.30;;;8.10;99.90;;;;;;5031845;28;20424;-68
2023/01/07 07:49:18;;;;;;;8.40;6.83;;;8.10;99.90;;;;;;5031634;28;20172;-67
2023/01/07 07:51:44;;;;;;;6.93;6.23;;;8.10;99.90;;;;;;5015602;28;20181;-68
2023/01/07 07:54:09;;;;;;;5.37;4.87;;;8.20;99.90;;;;;;5032113;28;20597;-68
2023/01/07 07:56:35;;;;;;;7.70;4.80;;;8.20;99.90;;;;;;5032179;28;20317;-68
2023/01/07 07:59:00;;;;;;;7.43;5.83;;;8.20;99.90;;;;;;5032113;28;20632;-68
2023/01/07 08:01:26;;;;;;;6.43;5.20;;;8.10;99.90;;;;;;5031987;28;20179;-68
2023/01/07 08:03:51;;;;;;;12.10;7.10;;;8.20;99.90;;;;;;5031823;28;20299;-68
2023/01/07 08:06:17;;;;;;;7.67;5.83;;;8.20;99.90;;;;;;5031687;28;20173;-68
2023/01/07 08:08:43;;;;;;;8.80;6.50;;;8.30;99.90;;;;;;5031886;28;20223;-68
2023/01/07 08:11:08;;;;;;;6.70;4.70;;;8.30;99.90;;;;;;5032170;28;20183;-68
2023/01/07 08:13:34;;;;;;;7.27;5.60;;;8.30;99.90;;;;;;5031641;28;20384;-68
2023/01/07 08:16:00;;;;;;;6.23;4.97;;;8.40;99.90;;;;;;5031600;28;20244;-67
2023/01/07 08:18:26;;;;;;;8.10;6.27;;;8.30;99.90;;;;;;5031492;28;20552;-69
2023/01/07 08:20:52;;;;;;;7.07;5.70;;;8.40;99.90;;;;;;5031616;28;20177;-68
2023/01/07 08:23:17;;;;;;;7.03;5.50;;;8.40;99.90;;;;;;5031564;28;20189;-67
2023/01/07 08:25:43;;;;;;;6.60;5.40;;;8.40;99.90;;;;;;5031420;28;20594;-67
2023/01/07 08:28:10;;;;;;;7.10;5.33;;;8.40;99.90;;;;;;5031545;28;20258;-68
2023/01/07 08:30:35;;;;;;;9.90;6.40;;;8.50;99.90;;;;;;5031348;28;20629;-66
2023/01/07 08:33:04;;;;;;;5.80;5.17;;;8.50;99.90;;;;;;5031300;28;20521;-66
2023/01/07 08:35:30;;;;;;;10.73;5.57;;;8.50;99.90;;;;;;5031303;28;20207;-66
2023/01/07 08:38:03;;;;;;;6.27;5.40;;;8.60;99.90;;;;;;5031351;28;20758;-66
2023/01/07 08:40:29;;;;;;;7.10;5.20;;;8.70;99.90;;;;;;5031105;28;20175;-67
2023/01/07 08:43:03;;;;;;;6.87;5.00;;;8.70;99.90;;;;;;5031370;28;20433;-67
2023/01/07 08:45:29;;;;;;;7.47;5.50;;;8.70;99.90;;;;;;5032482;28;20220;-67
2023/01/07 08:47:56;;;;;;;7.70;5.37;;;8.90;99.90;;;;;;5033845;28;20429;-68
2023/01/07 08:50:26;;;;;;;7.00;4.57;;;8.80;99.90;;;;;;5033467;28;20414;-67
2023/01/07 08:52:52;;;;;;;6.80;5.53;;;8.80;99.90;;;;;;5031758;28;20448;-67
2023/01/07 08:55:18;;;;;;;5.27;4.73;;;8.90;99.90;;;;;;5031468;28;20472;-69
2023/01/07 08:57:43;;;;;;;5.40;4.33;;;8.90;99.90;;;;;;5031636;28;20603;-68
2023/01/07 09:00:10;;;;;;;5.57;4.77;;;9.00;99.90;;;;;;5030783;28;20214;-67
2023/01/07 09:02:35;;;;;;;5.23;4.73;;;8.90;99.90;;;;;;5031177;28;20167;-67
2023/01/07 09:05:01;;;;;;;7.83;5.17;;;9.00;99.90;;;;;;5031544;28;20421;-67
2023/01/07 09:07:27;;;;;;;5.47;4.17;;;9.00;99.90;;;;;;5031280;28;20582;-67
2023/01/07 09:09:52;;;;;;;6.17;5.50;;;9.00;99.90;;;;;;5031101;28;20206;-67
2023/01/07 09:12:18;;;;;;;6.50;5.37;;;9.00;99.90;;;;;;5031059;28;20185;-68
2023/01/07 09:14:44;;;;;;;3.90;3.60;;;9.00;99.90;;;;;;5031078;28;20318;-68
2023/01/07 09:17:09;;;;;;;4.43;3.40;;;9.10;99.90;;;;;;5031507;28;20172;-68
2023/01/07 09:19:35;;;;;;;5.27;4.20;;;9.00;99.90;;;;;;5031302;28;20409;-68
2023/01/07 09:22:01;;;;;;;6.13;5.20;;;9.10;99.90;;;;;;5031329;28;20179;-68
2023/01/07 09:24:26;;;;;;;4.37;3.93;;;9.10;99.90;;;;;;5031315;28;20312;-67
2023/01/07 09:26:52;;;;;;;4.53;4.13;;;9.10;99.90;;;;;;5031342;28;20183;-69
2023/01/07 09:29:17;;;;;;;7.10;3.93;;;9.10;99.90;;;;;;5031101;28;20179;-68
2023/01/07 09:31:43;;;;;;;5.70;4.30;;;9.10;99.90;;;;;;5031266;28;20171;-69
2023/01/07 09:34:09;;;;;;;4.13;3.43;;;9.20;99.90;;;;;;5031534;28;20195;-68
2023/01/07 09:36:34;;;;;;;3.87;3.57;;;9.20;99.90;;;;;;5031795;28;20217;-67
2023/01/07 09:39:00;;;;;;;5.17;3.93;;;9.20;99.90;;;;;;5031406;28;20186;-67
2023/01/07 09:41:37;;;;;;;4.67;4.13;;;9.20;99.90;;;;;;5031399;28;20239;-67
2023/01/07 09:44:15;;;;;;;4.43;4.03;;;9.20;99.90;;;;;;5031520;28;20187;-74
2023/01/07 09:46:44;;;;;;;5.00;4.50;;;9.30;99.90;;;;;;5023837;28;20460;-68
2023/01/07 09:49:17;;;;;;;4.87;4.37;;;9.30;99.90;;;;;;5031310;28;20779;-67
2023/01/07 09:51:54;;;;;;;4.23;3.83;;;9.30;99.90;;;;;;5023882;28;20418;-67
2023/01/07 09:54:35;;;;;;;6.50;3.57;;;9.40;99.90;;;;;;5017416;28;20456;-67
2023/01/07 09:57:02;;;;;;;6.30;3.40;;;9.40;99.90;;;;;;5031129;28;20867;-68
2023/01/07 09:59:28;;;;;;;4.17;3.53;;;9.40;99.90;;;;;;5030874;28;20418;-68
2023/01/07 10:02:10;;;;;;;4.50;3.57;;;9.60;99.90;;;;;;5031070;28;20423;-68
2023/01/07 10:04:48;;;;;;;4.50;4.10;;;9.60;99.90;;;;;;5030715;28;20345;-68
2023/01/07 10:07:46;;;;;;;4.27;3.87;;;9.70;99.90;;;;;;5031046;28;20421;-69
2023/01/07 10:10:42;;;;;;;5.30;4.40;;;9.50;99.90;;;;;;5031191;28;20468;-68
2023/01/07 10:13:21;;;;;;;3.97;3.53;;;9.60;99.90;;;;;;5030508;28;20436;-68
2023/01/07 10:15:59;;;;;;;5.13;3.83;;;9.40;99.90;;;;;;5027625;28;20456;-68
2023/01/07 10:18:48;;;;;;;3.87;3.17;;;9.50;99.90;;;;;;5034528;28;20412;-68
2023/01/07 10:21:24;;;;;;;4.33;3.93;;;9.70;99.90;;;;;;5027982;28;20421;-69
2023/01/07 10:24:02;;;;;;;3.60;3.07;;;9.70;99.90;;;;;;5034415;28;20425;-67
2023/01/07 10:26:41;;;;;;;4.47;3.90;;;9.80;99.90;;;;;;5034437;28;20414;-69
2023/01/07 10:29:12;;;;;;;4.67;3.77;;;9.80;99.90;;;;;;5030217;28;20408;-68
2023/01/07 10:31:39;;;;;;;3.57;3.27;;;9.80;99.90;;;;;;5028567;28;20865;-72
2023/01/07 10:34:18;;;;;;;5.33;4.23;;;9.70;99.90;;;;;;5034268;28;20449;-68
2023/01/07 10:37:09;;;;;;;3.63;3.33;;;9.70;99.90;;;;;;5028226;28;20959;-67
2023/01/07 10:40:10;;;;;;;3.90;3.30;;;9.80;99.90;;;;;;5033079;28;20410;-66
2023/01/07 10:43:16;;;;;;;4.73;3.30;;;10.00;99.90;;;;;;5033996;28;20795;-68
2023/01/07 10:45:53;;;;;;;4.03;3.10;;;10.20;99.90;;;;;;5014478;28;20509;-69
2023/01/07 10:48:58;;;;;;;3.27;2.97;;;10.20;99.90;;;;;;5015200;28;20418;-68
2023/01/07 10:51:51;;;;;;;3.20;2.53;;;10.20;99.90;;;;;;5033347;28;20418;-68
2023/01/07 10:54:40;;;;;;;6.10;3.80;;;10.00;99.90;;;;;;5031057;28;20450;-68
2023/01/07 10:57:21;;;;;;;3.70;3.40;;;10.10;99.90;;;;;;5033672;28;20816;-73
2023/01/07 10:59:52;;;;;;;3.63;3.33;;;10.10;99.90;;;;;;5033809;28;20488;-72
2023/01/07 11:02:21;;;;;;;3.30;3.00;;;10.10;99.90;;;;;;5019391;28;20419;-68
2023/01/07 11:04:47;;;;;;;6.20;3.80;;;10.10;99.90;;;;;;5034209;28;20425;-70
2023/01/07 11:07:42;;;;;;;7.83;6.37;;;10.20;99.90;;;;;;5034096;28;20395;-69
2023/01/07 11:10:16;;;;;;;6.57;3.80;;;10.30;99.90;;;;;;5029821;28;20556;-71
2023/01/07 11:12:58;;;;;;;3.03;2.73;;;10.20;99.90;;;;;;5032558;28;20553;-69
2023/01/07 11:15:47;;;;;;;5.37;4.87;;;10.00;99.90;;;;;;5033574;28;20489;-73
2023/01/07 11:18:26;;;;;;;4.53;3.00;;;10.00;99.90;;;;;;5034342;28;20410;-69
2023/01/07 11:20:56;;;;;;;4.50;3.60;;;9.90;99.90;;;;;;5037225;28;20409;-69
2023/01/07 11:23:30;;;;;;;4.97;3.43;;;9.90;99.90;;;;;;5040881;28;20433;-68
2023/01/07 11:26:10;;;;;;;2.73;2.33;;;9.90;99.90;;;;;;5031892;28;20580;-68
2023/01/07 11:28:40;;;;;;;3.50;2.83;;;9.90;99.90;;;;;;5033224;28;20915;-67
2023/01/07 11:31:05;;;;;;;2.73;2.53;;;9.90;99.90;;;;;;5030590;28;20414;-70
2023/01/07 11:33:45;;;;;;;2.30;2.10;;;9.90;99.90;;;;;;5033666;28;21042;-68
2023/01/07 11:36:11;;;;;;;2.80;2.07;;;10.00;99.90;;;;;;5033140;28;20206;-69
2023/01/07 11:38:38;;;;;;;3.77;2.97;;;10.00;99.90;;;;;;5032565;28;20508;-68
2023/01/07 11:41:24;;;;;;;2.67;2.47;;;10.00;99.90;;;;;;5033059;28;20414;-70
2023/01/07 11:43:52;;;;;;;2.77;2.57;;;10.10;99.90;;;;;;5032114;28;20438;-70
2023/01/07 11:46:22;;;;;;;4.83;3.07;;;10.10;99.90;;;;;;5034630;28;20433;-69
2023/01/07 11:48:55;;;;;;;2.73;2.43;;;10.20;99.90;;;;;;5037660;28;20422;-68
2023/01/07 11:51:22;;;;;;;2.57;1.97;;;10.20;99.90;;;;;;5036170;28;20814;-69
2023/01/07 11:53:47;;;;;;;3.63;2.43;;;10.30;99.90;;;;;;5018884;28;20897;-69
2023/01/07 11:56:23;;;;;;;2.93;2.73;;;10.40;99.90;;;;;;5046077;22;20632;-71
2023/01/07 11:59:14;;;;;;;2.50;2.30;;;10.50;99.90;;;;;;5027387;28;20545;-69
2023/01/07 12:01:41;;;;;;;5.20;2.60;;;10.70;99.90;;;;;;5030714;28;20438;-70
2023/01/07 12:04:19;;;;;;;2.63;2.30;;;10.70;99.90;;;;;;5025703;28;20422;-70
2023/01/07 12:06:46;;;;;;;2.77;2.50;;;10.70;99.90;;;;;;5029566;28;20440;-72
2023/01/07 12:09:20;;;;;;;4.63;2.70;;;10.90;99.90;;;;;;5030589;28;20426;-71
2023/01/07 12:11:46;;;;;;;2.80;1.70;;;10.90;99.90;;;;;;5006505;28;20429;-71
2023/01/07 12:14:31;;;;;;;2.80;1.90;;;10.90;99.90;;;;;;5027408;28;20512;-71
2023/01/07 12:17:09;;;;;;;2.70;2.50;;;10.90;99.90;;;;;;5021217;28;20337;-70
2023/01/07 12:19:43;;;;;;;2.60;2.40;;;10.90;99.90;;;;;;5031390;28;20960;-70
2023/01/07 12:22:44;;;;;;;1.70;1.60;;;11.00;99.90;;;;;;5033873;28;20414;-70
2023/01/07 12:25:28;;;;;;;4.60;2.23;;;11.00;99.90;;;;;;4998412;28;21244;-70
2023/01/07 12:27:53;;;;;;;2.90;1.67;;;11.10;99.90;;;;;;5026105;28;20841;-70
2023/01/07 12:30:55;;;;;;;1.93;1.80;;;11.10;99.90;;;;;;5021100;28;20437;-69
2023/01/07 12:33:33;;;;;;;2.70;2.20;;;11.10;99.90;;;;;;5026973;28;20171;-69
2023/01/07 12:36:09;;;;;;;1.93;1.80;;;11.00;99.90;;;;;;5030812;28;20457;-70
2023/01/07 12:38:49;;;;;;;1.80;1.70;;;11.10;99.90;;;;;;5030297;28;20409;-69
2023/01/07 12:41:24;;;;;;;2.00;1.90;;;11.20;99.90;;;;;;5026024;28;20437;-70
2023/01/07 12:44:11;;;;;;;3.20;2.33;;;11.10;99.90;;;;;;5018632;28;20413;-70
2023/01/07 12:46:42;;;;;;;3.07;2.00;;;11.10;99.90;;;;;;5020393;28;20426;-69
2023/01/07 12:49:36;;;;;;;1.67;1.57;;;11.20;99.90;;;;;;5030066;28;20434;-69
2023/01/07 12:52:10;;;;;;;2.07;1.90;;;11.30;99.90;;;;;;5025733;28;20667;-70
2023/01/07 12:54:46;;;;;;;2.60;1.90;;;11.00;99.90;;;;;;5029607;28;20406;-70
2023/01/07 12:57:27;;;;;;;2.53;1.90;;;11.20;99.90;;;;;;5029869;28;20410;-70
2023/01/07 13:00:07;;;;;;;2.10;1.97;;;11.30;99.90;;;;;;5027360;28;20395;-70
2023/01/07 13:03:09;;;;;;;2.87;1.77;;;11.20;99.90;;;;;;5029320;28;20398;-69
2023/01/07 13:05:43;;;;;;;2.07;1.80;;;11.30;99.90;;;;;;5029186;28;20410;-69
2023/01/07 13:08:12;;;;;;;3.80;2.20;;;11.30;99.90;;;;;;5029605;28;20484;-70
2023/01/07 13:10:40;;;;;;;1.70;1.50;;;11.30;99.90;;;;;;5025829;28;20903;-70
2023/01/07 13:13:34;;;;;;;1.93;1.77;;;11.30;99.90;;;;;;5029721;28;20410;-70
2023/01/07 13:15:59;;;;;;;2.20;1.80;;;11.30;99.90;;;;;;5016827;28;20557;-70